createdAt,value
2018-11-22T12:17:23.734Z,100786.37
2018-11-22T12:22:27.055Z,100781.78
2018-11-22T12:27:30.410Z,100780.39
2018-11-22T12:32:35.055Z,100782.20
2018-11-22T12:37:43.385Z,100780.78
2018-11-22T12:42:43.435Z,100775.44
2018-11-22T12:47:46.759Z,100774.48
2018-11-22T12:52:50.036Z,100776.83
2018-11-22T12:57:53.354Z,100774.45
2018-11-22T13:02:56.638Z,100768.70
2018-11-22T13:07:59.955Z,100772.66
2018-11-22T13:13:03.239Z,100776.45
2018-11-22T13:18:06.546Z,100778.80
2018-11-22T13:23:09.855Z,100771.69
2018-11-22T13:28:13.143Z,100778.20
2018-11-22T13:33:16.428Z,100785.31
2018-11-22T13:38:19.707Z,100785.91
2018-11-22T13:43:22.991Z,100773.23
2018-11-22T13:48:26.271Z,100766.90
2018-11-22T13:53:29.670Z,100771.80
2018-11-22T13:58:32.955Z,100778.58
2018-11-22T14:03:36.242Z,100782.14
2018-11-22T14:08:39.527Z,100771.05
2018-11-22T14:13:42.803Z,100767.64
2018-11-22T14:18:46.082Z,100779.18
2018-11-22T14:23:49.370Z,100781.56
2018-11-22T14:28:52.655Z,100788.33
2018-11-22T14:33:55.931Z,100786.16
2018-11-22T14:39:00.119Z,100782.59
2018-11-22T14:44:03.435Z,100767.34
2018-11-22T14:49:07.072Z,100783.55
2018-11-22T14:54:10.355Z,100783.19
2018-11-22T14:59:13.715Z,100784.77
2018-11-22T15:04:16.987Z,100788.92
2018-11-22T15:09:20.267Z,100789.28
2018-11-22T15:14:23.587Z,100783.38
2018-11-22T15:19:26.878Z,100787.70
2018-11-22T15:24:30.231Z,100792.20
2018-11-22T15:29:33.543Z,100780.13
2018-11-22T15:34:36.831Z,100783.29
2018-11-22T15:39:40.113Z,100790.21
2018-11-22T15:44:43.437Z,100790.56
2018-11-22T15:49:46.742Z,100791.31
2018-11-22T15:54:50.024Z,100794.08
2018-11-22T15:59:53.324Z,100798.13
2018-11-22T16:04:56.618Z,100795.77
2018-11-22T16:09:59.920Z,100794.56
2018-11-22T16:15:03.303Z,100794.73
2018-11-22T16:20:07.719Z,100800.67
2018-11-22T16:25:12.244Z,100808.80
2018-11-22T16:30:17.101Z,100809.98
2018-11-22T16:35:21.231Z,100815.66
2018-11-22T16:45:30.219Z,100805.75
2018-11-22T16:50:34.548Z,100808.34
2018-11-22T16:55:37.848Z,100785.22
2018-11-22T17:00:41.440Z,100799.03
2018-11-22T17:05:45.065Z,100811.12
2018-11-22T17:10:48.365Z,100809.53
2018-11-22T17:15:51.660Z,100810.13
2018-11-22T17:20:55.048Z,100813.14
2018-11-22T17:25:58.327Z,100810.73
2018-11-22T17:31:01.616Z,100801.80
2018-11-22T17:36:05.296Z,100800.75
2018-11-22T17:41:08.577Z,100801.94
2018-11-22T17:46:12.203Z,100806.52
2018-11-22T17:51:15.492Z,100807.91
2018-11-22T17:56:18.807Z,100800.42
2018-11-22T18:01:22.091Z,100799.79
2018-11-22T18:06:25.375Z,100801.12
2018-11-22T18:11:28.679Z,100792.78
2018-11-22T18:16:31.963Z,100791.12
2018-11-22T18:21:35.281Z,100791.50
2018-11-22T18:26:38.567Z,100788.16
2018-11-22T18:31:41.851Z,100783.96
2018-11-22T18:36:45.228Z,100780.86
2018-11-22T18:41:48.692Z,100786.39
2018-11-22T18:46:52.357Z,100789.00
2018-11-22T18:51:55.638Z,100788.34
2018-11-22T18:56:58.923Z,100790.14
2018-11-22T19:02:02.272Z,100787.58
2018-11-22T19:07:06.368Z,100789.34
2018-11-22T19:12:09.656Z,100782.98
2018-11-22T19:17:13.016Z,100783.41
2018-11-22T19:22:16.345Z,100790.81
2018-11-22T19:27:19.651Z,100785.86
2018-11-22T19:32:22.940Z,100790.08
2018-11-22T19:37:26.496Z,100779.20
2018-11-22T19:42:29.775Z,100782.73
2018-11-22T19:47:33.115Z,100787.21
2018-11-22T19:52:36.963Z,100790.73
2018-11-22T19:57:40.419Z,100799.32
2018-11-22T20:02:44.444Z,100796.93
2018-11-22T20:07:49.340Z,100798.14
2018-11-22T20:12:52.696Z,100805.32
2018-11-22T20:17:56.427Z,100810.03
2018-11-22T20:22:59.779Z,100811.88
2018-11-22T20:28:03.424Z,100808.58
2018-11-22T20:33:06.846Z,100813.77
2018-11-22T20:38:10.184Z,100809.41
2018-11-22T20:43:13.495Z,100815.11
2018-11-22T20:48:16.827Z,100815.77
2018-11-22T20:53:20.124Z,100812.84
2018-11-22T20:58:23.457Z,100813.69
2018-11-22T21:03:26.805Z,100818.45
2018-11-22T21:08:30.229Z,100818.26
2018-11-22T21:13:33.564Z,100820.67
2018-11-22T21:18:36.904Z,100831.13
2018-11-22T21:23:40.269Z,100827.77
2018-11-22T21:28:43.680Z,100819.63
2018-11-22T21:33:47.032Z,100822.06
2018-11-22T21:38:50.346Z,100826.78
2018-11-22T21:43:53.686Z,100830.34
2018-11-22T21:48:57.188Z,100834.34
2018-11-22T21:54:01.020Z,100825.44
2018-11-22T21:59:04.762Z,100830.20
2018-11-22T22:04:08.144Z,100830.43
2018-11-22T22:09:11.528Z,100828.45
2018-11-22T22:14:14.883Z,100827.85
2018-11-22T22:19:18.235Z,100830.63
2018-11-22T22:24:21.668Z,100836.17
2018-11-22T22:29:24.971Z,100833.99
2018-11-22T22:34:28.295Z,100836.77
2018-11-22T22:39:31.598Z,100828.84
2018-11-22T22:44:35.094Z,100833.61
2018-11-22T22:49:38.392Z,100829.87
2018-11-22T22:54:41.735Z,100828.27
2018-11-22T22:59:45.043Z,100822.71
2018-11-22T23:04:48.384Z,100819.38
2018-11-22T23:09:51.724Z,100821.92
2018-11-22T23:14:55.041Z,100817.01
2018-11-22T23:19:58.357Z,100821.37
2018-11-22T23:25:01.680Z,100819.19
2018-11-22T23:30:09.585Z,100818.20
2018-11-22T23:35:12.899Z,100818.99
2018-11-22T23:40:17.387Z,100816.61
2018-11-22T23:45:21.912Z,100811.67
2018-11-22T23:50:27.469Z,100816.61
2018-11-22T23:55:30.776Z,100818.39
